KDSM

Des Moines International Airport

Des Moines, Iowa, USA
KDSM 251527Z 2515/2612 29004KT P6SM -SHRA OVC010 TEMPO 2515/2518 VRB15G35KT 1/2SM +TSRA OVC008CB FM251800 33011G21KT 6SM SHRA OVC020 FM252000 33011G21KT P6SM VCSH BKN050 FM260000 33009KT P6SM SCT080 FM260900 28009KT P6SM FEW080
Issued Valid From Valid To
Sep-25 @ 15:27 UTC
(2 hours ago)
Sep-25 @ 15:00 UTC
(2 hours ago)
Sep-26 @ 12:00 UTC
(in 19 hours)
Sep-25 @ 15:00 to Sep-25 @ 18:00
KDSM 251527Z 2515/2612 29004KT P6SM -SHRA OVC010
Wind Visibility Clouds Conditions
290° at 4 knots Greater than 6 miles
  • Overcast at 1,000' AGL
  • Light Rain
Temporary Sep-25 @ 15:00 to Sep-25 @ 18:00
TEMPO 2515/2518 VRB15G35KT 1/2SM +TSRA OVC008CB
Wind Visibility Clouds Conditions
Variable at 15 knots
 Gusting to 35 knots
1/2 miles
  • Overcast at 800' AGL
  • Heavy Thunderstorm
  • Heavy Rain
From Sep-25 @ 18:00 to Sep-25 @ 20:00
FM251800 33011G21KT 6SM SHRA OVC020
Wind Visibility Clouds Conditions
330° at 11 knots
 Gusting to 21 knots
6 miles
  • Overcast at 2,000' AGL
  • Rain
From Sep-25 @ 20:00 to Sep-26 @ 00:00
FM252000 33011G21KT P6SM VCSH BKN050
Wind Visibility Clouds
330° at 11 knots
 Gusting to 21 knots
Greater than 6 miles
  • Broken at 5,000' AGL
From Sep-26 @ 00:00 to Sep-26 @ 09:00
FM260000 33009KT P6SM SCT080
Wind Visibility Clouds
330° at 9 knots Greater than 6 miles
  • Scattered at 8,000' AGL
From Sep-26 @ 09:00 to Sep-26 @ 12:00
FM260900 28009KT P6SM FEW080
Wind Visibility Clouds
280° at 9 knots Greater than 6 miles
  • Few at 8,000' AGL
KDSM 251527Z 2515/2612 29004KT P6SM -SHRA OVC010 TEMPO 2515/2518 VRB15G35KT 1/2SM +TSRA OVC008CB FM251800 33011G21KT 6SM SHRA OVC020 FM252000 33011G21KT P6SM VCSH BKN050 FM260000 33009KT P6SM SCT080 FM260900 28009KT P6SM FEW080
Issued Sep-25 @ 15:27 UTC
(2 hours ago)
Valid From Sep-25 @ 15:00 UTC
(2 hours ago)
Valid To Sep-26 @ 12:00 UTC
(in 19 hours)
Sep-25 @ 15:00 - Sep-25 @ 18:00
Wind Visibility
290° at 4 knots Greater than 6 miles
Clouds
  • Overcast at 1,000' AGL
Conditions
  • Light Rain
Temporary Sep-25 @ 15:00 - Sep-25 @ 18:00
Wind Visibility
Variable at 15 knots
 Gusting to 35 knots
1/2 miles
Clouds
  • Overcast at 800' AGL
Conditions
  • Heavy Thunderstorm
  • Heavy Rain
From Sep-25 @ 18:00 - Sep-25 @ 20:00
Wind Visibility
330° at 11 knots
 Gusting to 21 knots
6 miles
Clouds
  • Overcast at 2,000' AGL
Conditions
  • Rain
From Sep-25 @ 20:00 - Sep-26 @ 00:00
Wind Visibility
330° at 11 knots
 Gusting to 21 knots
Greater than 6 miles
Clouds
  • Broken at 5,000' AGL
From Sep-26 @ 00:00 - Sep-26 @ 09:00
Wind Visibility
330° at 9 knots Greater than 6 miles
Clouds
  • Scattered at 8,000' AGL
From Sep-26 @ 09:00 - Sep-26 @ 12:00
Wind Visibility
280° at 9 knots Greater than 6 miles
Clouds
  • Few at 8,000' AGL